createdAt,value
2019-02-15T00:00:52.675Z,5.80
2019-02-15T00:03:22.794Z,5.80
2019-02-15T00:05:52.679Z,5.80
2019-02-15T00:08:22.557Z,5.70
2019-02-15T00:10:55.002Z,5.70
2019-02-15T00:13:27.402Z,5.60
2019-02-15T00:15:57.631Z,5.60
2019-02-15T00:18:36.703Z,5.50
2019-02-15T00:21:08.672Z,5.50
2019-02-15T00:23:38.504Z,5.50
2019-02-15T00:26:08.308Z,5.40
2019-02-15T00:28:38.151Z,5.40
2019-02-15T00:31:10.362Z,5.40
2019-02-15T00:33:40.146Z,5.30
2019-02-15T00:36:10.029Z,5.30
2019-02-15T00:38:39.880Z,5.30
2019-02-15T00:41:09.698Z,5.30
2019-02-15T00:43:40.345Z,5.20
2019-02-15T00:46:17.874Z,5.20
2019-02-15T00:48:47.730Z,5.20
2019-02-15T00:51:20.118Z,5.20
2019-02-15T00:54:00.538Z,5.20
2019-02-15T00:56:31.922Z,5.20
2019-02-15T00:59:21.548Z,5.10
2019-02-15T01:01:52.995Z,5.10
2019-02-15T01:04:24.407Z,5.10
2019-02-15T01:06:55.832Z,5.10
2019-02-15T01:09:27.311Z,5.10
2019-02-15T01:11:58.654Z,5.00
2019-02-15T01:14:28.548Z,5.00
2019-02-15T01:16:58.346Z,5.00
2019-02-15T01:19:28.234Z,5.00
2019-02-15T01:21:58.105Z,5.00
2019-02-15T01:24:27.928Z,5.00
2019-02-15T01:27:00.698Z,5.00
2019-02-15T01:29:34.844Z,4.90
2019-02-15T01:32:13.394Z,4.90
2019-02-15T01:34:53.832Z,4.90
2019-02-15T01:37:28.456Z,4.90
2019-02-15T01:40:06.038Z,4.80
2019-02-15T01:42:43.606Z,4.80
2019-02-15T01:45:20.909Z,4.80
2019-02-15T01:47:50.888Z,4.70
2019-02-15T01:50:22.052Z,4.70
2019-02-15T01:52:52.966Z,4.70
2019-02-15T01:55:23.828Z,4.70
2019-02-15T01:57:54.356Z,4.70
2019-02-15T02:00:25.850Z,4.60
2019-02-15T02:02:55.664Z,4.60
2019-02-15T02:05:25.452Z,4.60
2019-02-15T02:07:56.295Z,4.60
2019-02-15T02:10:26.998Z,4.60
2019-02-15T02:12:56.844Z,4.50
2019-02-15T02:15:26.670Z,4.50
2019-02-15T02:17:56.482Z,4.50
2019-02-15T02:20:26.357Z,4.40
2019-02-15T02:22:56.139Z,4.40
2019-02-15T02:25:25.989Z,4.30
2019-02-15T02:27:57.002Z,4.30
2019-02-15T02:30:26.836Z,4.30
2019-02-15T02:32:56.655Z,4.20
2019-02-15T02:35:26.523Z,4.20
2019-02-15T02:37:56.323Z,4.20
2019-02-15T02:40:26.174Z,4.10
2019-02-15T02:42:56.043Z,4.10
2019-02-15T02:45:25.849Z,4.10
2019-02-15T02:47:55.657Z,4.00
2019-02-15T02:50:25.483Z,4.00
2019-02-15T02:52:55.313Z,4.00
2019-02-15T02:55:25.156Z,4.00
2019-02-15T02:57:55.399Z,3.90
2019-02-15T03:00:33.177Z,3.90
2019-02-15T03:02:57.474Z,3.90
2019-02-15T03:05:27.287Z,3.90
2019-02-15T03:07:57.279Z,3.90
2019-02-15T03:10:27.153Z,3.90
2019-02-15T03:12:56.989Z,3.80
2019-02-15T03:15:26.895Z,3.80
2019-02-15T03:17:56.795Z,3.80
2019-02-15T03:20:31.432Z,3.70
2019-02-15T03:22:58.558Z,3.70
2019-02-15T03:25:29.739Z,3.70
2019-02-15T03:27:59.871Z,3.70
2019-02-15T03:30:29.672Z,3.70
2019-02-15T03:32:59.595Z,3.70
2019-02-15T03:35:29.466Z,3.70
2019-02-15T03:38:00.914Z,3.70
2019-02-15T03:40:32.335Z,3.70
2019-02-15T03:43:02.127Z,3.70
2019-02-15T03:45:32.178Z,3.70
2019-02-15T03:48:02.343Z,3.70
2019-02-15T03:50:32.189Z,3.70
2019-02-15T03:53:02.449Z,3.70
2019-02-15T03:55:32.451Z,3.70
2019-02-15T03:58:02.637Z,3.70
2019-02-15T04:00:32.687Z,3.70
2019-02-15T04:03:02.883Z,3.70
2019-02-15T04:05:32.693Z,3.70
2019-02-15T04:08:02.903Z,3.70
2019-02-15T04:10:32.742Z,3.70
2019-02-15T04:13:02.697Z,3.70
2019-02-15T04:15:32.507Z,3.70
2019-02-15T04:18:02.423Z,3.70
2019-02-15T04:20:32.239Z,3.70
2019-02-15T04:23:02.435Z,3.70
2019-02-15T04:25:32.278Z,3.70
2019-02-15T04:28:04.271Z,3.70
2019-02-15T04:30:35.701Z,3.70
2019-02-15T04:33:06.604Z,3.70
2019-02-15T04:35:36.961Z,3.70
2019-02-15T04:38:14.023Z,3.70
2019-02-15T04:40:46.857Z,3.70
2019-02-15T04:43:19.664Z,3.70
2019-02-15T04:45:52.341Z,3.70
2019-02-15T04:48:22.559Z,3.70
2019-02-15T04:50:53.871Z,3.70
2019-02-15T04:53:24.769Z,3.70
2019-02-15T04:55:54.592Z,3.70
2019-02-15T04:58:27.009Z,3.70
2019-02-15T05:00:56.840Z,3.70
2019-02-15T05:03:28.681Z,3.70
2019-02-15T05:06:00.656Z,3.70
2019-02-15T05:08:30.512Z,3.70
2019-02-15T05:11:00.418Z,3.70
2019-02-15T05:13:30.234Z,3.80
2019-02-15T05:16:00.048Z,3.80
2019-02-15T05:18:32.230Z,3.80
2019-02-15T05:21:02.462Z,3.80
2019-02-15T05:23:32.332Z,3.80
2019-02-15T05:26:02.162Z,3.80
2019-02-15T05:28:33.476Z,3.80
2019-02-15T05:31:07.432Z,3.80
2019-02-15T05:33:37.298Z,3.80
2019-02-15T05:36:09.109Z,3.80
2019-02-15T05:38:41.249Z,3.80
2019-02-15T05:41:11.765Z,3.80
2019-02-15T05:43:41.985Z,3.80
2019-02-15T05:46:13.303Z,3.80
2019-02-15T05:48:43.135Z,3.80
2019-02-15T05:51:14.170Z,3.80
2019-02-15T05:53:45.131Z,3.80
2019-02-15T05:56:16.454Z,3.80
2019-02-15T05:58:46.872Z,3.80
2019-02-15T06:01:18.905Z,3.80
2019-02-15T06:03:48.773Z,3.80
2019-02-15T06:06:18.670Z,3.80
2019-02-15T06:08:48.484Z,3.90
2019-02-15T06:11:20.896Z,3.90
2019-02-15T06:13:51.134Z,3.90
2019-02-15T06:16:22.519Z,3.90
2019-02-15T06:18:55.475Z,3.90
2019-02-15T06:21:25.327Z,3.90
2019-02-15T06:23:55.744Z,4.00
2019-02-15T06:26:26.478Z,4.00
2019-02-15T06:28:57.609Z,4.00
2019-02-15T06:31:32.456Z,4.00
2019-02-15T06:34:03.741Z,4.00
2019-02-15T06:36:35.485Z,4.00
2019-02-15T06:39:08.899Z,4.10
2019-02-15T06:41:40.654Z,4.10
2019-02-15T06:44:12.087Z,4.10
2019-02-15T06:46:42.009Z,4.10
2019-02-15T06:49:11.940Z,4.10
2019-02-15T06:51:41.770Z,4.20
2019-02-15T06:54:11.757Z,4.20
2019-02-15T06:56:41.593Z,4.20
2019-02-15T06:59:16.775Z,4.20
2019-02-15T07:01:50.845Z,4.20
2019-02-15T07:04:22.228Z,4.30
2019-02-15T07:06:52.254Z,4.30
2019-02-15T07:09:22.098Z,4.30
2019-02-15T07:11:51.947Z,4.30
2019-02-15T07:14:21.849Z,4.30
2019-02-15T07:16:51.799Z,4.30
2019-02-15T07:19:21.609Z,4.40
2019-02-15T07:21:53.485Z,4.40
2019-02-15T07:24:23.289Z,4.40
2019-02-15T07:26:57.349Z,4.40
2019-02-15T07:29:31.479Z,4.40
2019-02-15T07:32:03.469Z,4.50
2019-02-15T07:34:33.659Z,4.50
2019-02-15T07:37:06.877Z,4.50
2019-02-15T07:39:41.829Z,4.50
2019-02-15T07:42:11.693Z,4.50
2019-02-15T07:44:42.719Z,4.60
2019-02-15T07:47:14.024Z,4.60
2019-02-15T07:49:43.899Z,4.60
2019-02-15T07:52:17.541Z,4.60
2019-02-15T07:54:48.497Z,4.60
2019-02-15T07:57:19.419Z,4.60
2019-02-15T07:59:50.818Z,4.60
2019-02-15T08:02:21.235Z,4.60
2019-02-15T08:04:51.106Z,4.60
2019-02-15T08:07:21.069Z,4.60
2019-02-15T08:09:50.949Z,4.60
2019-02-15T08:12:22.530Z,4.60
2019-02-15T08:15:00.952Z,4.60
2019-02-15T08:17:39.153Z,4.60
2019-02-15T08:20:14.872Z,4.60
2019-02-15T08:22:45.381Z,4.60
2019-02-15T08:25:15.275Z,4.60
2019-02-15T08:30:38.112Z,4.60
2019-02-15T08:33:10.242Z,4.60
2019-02-15T08:35:51.042Z,4.70
2019-02-15T08:38:23.161Z,4.70
2019-02-15T08:41:12.196Z,4.70
2019-02-15T08:44:01.396Z,4.70
2019-02-15T08:46:33.542Z,4.80
2019-02-15T08:49:13.612Z,4.80
2019-02-15T08:51:58.510Z,4.90
2019-02-15T08:54:28.462Z,4.90
2019-02-15T08:56:59.833Z,5.00
2019-02-15T08:59:36.961Z,5.00
2019-02-15T09:02:14.857Z,5.00
2019-02-15T09:04:47.287Z,5.10
2019-02-15T09:07:27.996Z,5.10
2019-02-15T09:10:01.691Z,5.10
2019-02-15T09:12:31.594Z,5.20
2019-02-15T09:15:26.433Z,5.20
2019-02-15T09:18:11.544Z,5.20
2019-02-15T09:20:41.406Z,5.20
2019-02-15T09:23:12.305Z,5.20
2019-02-15T09:25:43.484Z,5.30
2019-02-15T09:28:17.304Z,5.30
2019-02-15T09:30:49.239Z,5.30
2019-02-15T09:33:19.086Z,5.40
2019-02-15T09:35:50.206Z,5.40
2019-02-15T09:38:20.040Z,5.40
2019-02-15T09:40:49.852Z,5.40
2019-02-15T09:43:22.907Z,5.40
2019-02-15T09:45:55.699Z,5.40
2019-02-15T09:48:28.364Z,5.50
2019-02-15T09:51:03.086Z,5.50
2019-02-15T09:53:37.046Z,5.50
2019-02-15T09:56:10.548Z,5.50
2019-02-15T09:58:42.396Z,5.50
2019-02-15T10:01:20.455Z,5.50
2019-02-15T10:03:55.310Z,5.50
2019-02-15T10:06:26.784Z,5.50
2019-02-15T10:09:00.374Z,5.50
2019-02-15T10:11:32.246Z,5.40
2019-02-15T10:14:12.536Z,5.40
2019-02-15T10:16:44.537Z,5.40
2019-02-15T10:19:22.168Z,5.40
2019-02-15T10:21:47.834Z,5.40
2019-02-15T10:24:20.351Z,5.40
2019-02-15T10:26:52.026Z,5.40
2019-02-15T10:29:23.850Z,5.40
2019-02-15T10:31:59.954Z,5.40
2019-02-15T10:34:32.279Z,5.40
2019-02-15T10:37:06.158Z,5.40
2019-02-15T10:39:36.658Z,5.40
2019-02-15T10:42:09.401Z,5.40
2019-02-15T10:44:42.745Z,5.40
2019-02-15T10:47:24.751Z,5.40
2019-02-15T10:49:57.511Z,5.40
2019-02-15T10:52:30.262Z,5.40
2019-02-15T10:55:02.193Z,5.40
2019-02-15T10:57:40.929Z,5.40
2019-02-15T11:00:28.967Z,5.40
2019-02-15T11:03:02.735Z,5.40
2019-02-15T11:05:34.932Z,5.40
2019-02-15T11:08:09.563Z,5.40
2019-02-15T11:10:42.627Z,5.30
2019-02-15T11:13:14.638Z,5.30
2019-02-15T11:15:49.947Z,5.30
2019-02-15T11:18:23.925Z,5.30
2019-02-15T11:20:56.743Z,5.30
2019-02-15T11:23:28.844Z,5.30
2019-02-15T11:26:04.602Z,5.30
2019-02-15T11:28:39.108Z,5.30
2019-02-15T11:31:16.856Z,5.30
2019-02-15T11:33:47.548Z,5.30
2019-02-15T11:36:27.315Z,5.30
2019-02-15T11:38:58.258Z,5.30
2019-02-15T11:41:35.759Z,5.30
2019-02-15T11:44:06.241Z,5.30
2019-02-15T11:46:37.404Z,5.30
2019-02-15T11:49:07.291Z,5.40
2019-02-15T11:51:42.229Z,5.40
2019-02-15T11:54:23.343Z,5.40
2019-02-15T11:56:52.060Z,5.40
2019-02-15T11:59:23.825Z,5.50
2019-02-15T12:02:06.886Z,5.50
2019-02-15T12:05:01.427Z,5.50
2019-02-15T12:07:35.930Z,5.50
2019-02-15T12:10:11.095Z,5.40
2019-02-15T12:12:47.683Z,5.40
2019-02-15T12:15:31.463Z,5.40
2019-02-15T12:18:07.422Z,5.40
2019-02-15T12:20:41.950Z,5.40
2019-02-15T12:23:13.759Z,5.50
2019-02-15T12:25:45.413Z,5.50
2019-02-15T12:28:23.545Z,5.50
2019-02-15T12:30:53.276Z,5.50
2019-02-15T12:33:25.483Z,5.50
2019-02-15T12:35:56.824Z,5.50
2019-02-15T12:38:26.709Z,5.50
2019-02-15T12:40:59.343Z,5.40
2019-02-15T12:43:33.717Z,5.40
2019-02-15T12:46:06.793Z,5.40
2019-02-15T12:48:37.029Z,5.40
2019-02-15T12:51:07.353Z,5.40
2019-02-15T12:53:39.961Z,5.40
2019-02-15T12:56:12.918Z,5.30
2019-02-15T12:58:44.390Z,5.30
2019-02-15T13:01:15.769Z,5.30
2019-02-15T13:03:47.765Z,5.30
2019-02-15T13:06:28.201Z,5.30
2019-02-15T13:08:58.333Z,5.30
2019-02-15T13:11:31.265Z,5.30
2019-02-15T13:14:01.131Z,5.30
2019-02-15T13:16:32.539Z,5.30
2019-02-15T13:19:03.720Z,5.30
2019-02-15T13:21:33.541Z,5.30
2019-02-15T13:24:03.488Z,5.30
2019-02-15T13:26:36.340Z,5.30
2019-02-15T13:29:11.035Z,5.30
2019-02-15T13:31:44.944Z,5.30
2019-02-15T13:34:16.363Z,5.30
2019-02-15T13:36:49.508Z,5.20
2019-02-15T13:39:21.410Z,5.20
2019-02-15T13:41:51.394Z,5.20
2019-02-15T13:44:21.271Z,5.20
2019-02-15T13:46:52.863Z,5.20
2019-02-15T13:49:24.154Z,5.20
2019-02-15T13:52:01.932Z,5.30
2019-02-15T13:54:35.806Z,5.30
2019-02-15T13:57:05.682Z,5.20
2019-02-15T13:59:41.207Z,5.20
2019-02-15T14:02:13.213Z,5.10
2019-02-15T14:04:46.729Z,5.10
2019-02-15T14:07:22.699Z,5.10
2019-02-15T14:09:53.865Z,5.00
2019-02-15T14:12:30.375Z,5.00
2019-02-15T14:15:02.206Z,4.90
2019-02-15T14:17:58.344Z,4.90
2019-02-15T14:20:33.303Z,4.90
2019-02-15T14:23:05.935Z,4.90
2019-02-15T14:25:40.976Z,4.90
2019-02-15T14:28:27.080Z,4.80
2019-02-15T14:31:01.226Z,4.80
2019-02-15T14:33:34.508Z,4.80
2019-02-15T14:36:08.395Z,4.70
2019-02-15T14:38:40.332Z,4.70
2019-02-15T14:41:18.141Z,4.70
2019-02-15T14:43:53.853Z,4.70
2019-02-15T14:46:26.613Z,4.70
2019-02-15T14:48:58.731Z,4.70
2019-02-15T14:51:37.304Z,4.70
2019-02-15T14:54:10.842Z,4.70
2019-02-15T14:56:51.408Z,4.70
2019-02-15T14:59:24.251Z,4.70
2019-02-15T15:01:56.814Z,4.70
2019-02-15T15:04:26.635Z,4.60
2019-02-15T15:07:02.168Z,4.60
2019-02-15T15:09:35.824Z,4.60
2019-02-15T15:12:11.563Z,4.50
2019-02-15T15:14:42.661Z,4.50
2019-02-15T15:17:12.587Z,4.40
2019-02-15T15:19:43.480Z,4.40
2019-02-15T15:22:18.599Z,4.40
2019-02-15T15:24:51.205Z,4.30
2019-02-15T15:27:22.655Z,4.30
2019-02-15T15:29:57.209Z,4.30
2019-02-15T15:32:28.725Z,4.20
2019-02-15T15:34:58.523Z,4.20
2019-02-15T15:37:30.876Z,4.20
2019-02-15T15:40:02.378Z,4.20
2019-02-15T15:42:37.508Z,4.20
2019-02-15T15:45:10.066Z,4.20
2019-02-15T15:47:42.937Z,4.10
2019-02-15T15:50:14.641Z,4.10
2019-02-15T15:52:45.070Z,4.00
2019-02-15T15:55:18.568Z,4.00
2019-02-15T15:57:49.204Z,4.00
2019-02-15T16:00:20.913Z,4.00
2019-02-15T16:02:52.225Z,4.00
2019-02-15T16:05:24.780Z,3.90
2019-02-15T16:08:03.925Z,3.90
2019-02-15T16:10:38.989Z,3.90
2019-02-15T16:13:10.832Z,3.90
2019-02-15T16:15:43.154Z,3.90
2019-02-15T16:18:15.575Z,3.90
2019-02-15T16:20:46.547Z,3.90
2019-02-15T16:23:21.697Z,3.90
2019-02-15T16:26:07.213Z,3.90
2019-02-15T16:28:53.996Z,3.90
2019-02-15T16:31:24.893Z,3.90
2019-02-15T16:33:56.468Z,3.90
2019-02-15T16:36:26.390Z,3.90
2019-02-15T16:39:03.140Z,3.90
2019-02-15T16:41:36.887Z,3.90
2019-02-15T16:44:13.809Z,3.90
2019-02-15T16:49:53.617Z,3.90
2019-02-15T16:52:34.802Z,3.90
2019-02-15T17:01:25.772Z,3.80
2019-02-15T17:04:04.281Z,3.80
2019-02-15T17:07:15.475Z,3.80
2019-02-15T17:12:54.811Z,3.80
2019-02-15T17:15:29.203Z,3.80
2019-02-15T17:18:06.532Z,3.80
2019-02-15T17:23:53.350Z,3.70
2019-02-15T17:29:51.854Z,3.70
2019-02-15T17:32:30.450Z,3.70
2019-02-15T17:38:08.935Z,3.60
2019-02-15T17:40:47.533Z,3.70
2019-02-15T17:43:19.025Z,3.60
2019-02-15T17:46:14.712Z,3.60
2019-02-15T17:48:50.999Z,3.50
2019-02-15T17:51:25.995Z,3.50
2019-02-15T17:54:19.032Z,3.50
2019-02-15T17:57:11.834Z,3.50
2019-02-15T17:59:54.114Z,3.50
2019-02-15T18:02:31.006Z,3.40
2019-02-15T18:05:20.172Z,3.40
2019-02-15T18:08:10.537Z,3.40
2019-02-15T18:10:51.329Z,3.30
2019-02-15T18:13:24.391Z,3.30
2019-02-15T18:16:00.973Z,3.30
2019-02-15T18:18:33.948Z,3.20
2019-02-15T18:21:13.054Z,3.20
2019-02-15T18:23:52.019Z,3.10
2019-02-15T18:27:21.245Z,3.10
2019-02-15T18:29:20.410Z,3.10
2019-02-15T18:31:59.816Z,3.00
2019-02-15T18:34:31.791Z,3.00
2019-02-15T18:37:36.805Z,3.00
2019-02-15T18:40:17.791Z,3.00
2019-02-15T18:43:03.163Z,2.90
2019-02-15T18:45:36.617Z,2.90
2019-02-15T18:48:09.436Z,2.90
2019-02-15T18:50:49.796Z,2.90
2019-02-15T18:53:21.874Z,2.80
2019-02-15T18:56:01.906Z,2.90
2019-02-15T18:58:35.063Z,2.80
2019-02-15T19:01:11.306Z,2.80
2019-02-15T19:03:43.096Z,2.80
2019-02-15T19:06:13.424Z,2.80
2019-02-15T19:08:47.494Z,2.70
2019-02-15T19:11:20.742Z,2.70
2019-02-15T19:13:55.194Z,2.70
2019-02-15T19:16:41.683Z,2.70
2019-02-15T19:19:17.953Z,2.70
2019-02-15T19:21:48.210Z,2.70
2019-02-15T19:24:25.446Z,2.70
2019-02-15T19:26:56.891Z,2.60
2019-02-15T19:29:30.604Z,2.60
2019-02-15T19:32:02.030Z,2.60
2019-02-15T19:34:33.705Z,2.60
2019-02-15T19:37:11.480Z,2.60
2019-02-15T19:39:48.175Z,2.60
2019-02-15T19:50:51.772Z,2.50
2019-02-15T19:53:22.720Z,2.50
2019-02-15T19:55:52.566Z,2.50
2019-02-15T19:58:24.709Z,2.50
2019-02-15T20:01:00.750Z,2.50
2019-02-15T20:03:31.239Z,2.50
2019-02-15T20:06:01.108Z,2.50
2019-02-15T20:08:31.772Z,2.50
2019-02-15T20:11:05.996Z,2.50
2019-02-15T20:13:41.343Z,2.50
2019-02-15T20:16:18.464Z,2.50
2019-02-15T20:19:19.835Z,2.50
2019-02-15T20:24:50.793Z,2.50
2019-02-15T20:27:21.802Z,2.60
2019-02-15T20:30:06.147Z,2.60
2019-02-15T20:33:05.271Z,2.60
2019-02-15T20:35:41.207Z,2.60
2019-02-15T20:38:14.056Z,2.60
2019-02-15T20:40:50.936Z,2.50
2019-02-15T20:43:22.890Z,2.50
2019-02-15T20:45:58.574Z,2.50
2019-02-15T20:48:30.203Z,2.40
2019-02-15T20:51:00.058Z,2.40
2019-02-15T20:53:35.280Z,2.40
2019-02-15T20:56:10.631Z,2.40
2019-02-15T20:58:44.676Z,2.40
2019-02-15T21:01:17.729Z,2.30
2019-02-15T21:03:54.710Z,2.30
2019-02-15T21:06:24.880Z,2.30
2019-02-15T21:08:56.545Z,2.30
2019-02-15T21:11:27.050Z,2.30
2019-02-15T21:14:01.050Z,2.30
2019-02-15T21:16:32.153Z,2.30
2019-02-15T21:19:03.905Z,2.30
2019-02-15T21:21:33.689Z,2.30
2019-02-15T21:24:08.290Z,2.30
2019-02-15T21:26:42.791Z,2.30
2019-02-15T21:29:16.758Z,2.30
2019-02-15T21:31:48.583Z,2.30
2019-02-15T21:34:19.201Z,2.40
2019-02-15T21:36:49.050Z,2.40
2019-02-15T21:39:23.557Z,2.40
2019-02-15T21:41:55.158Z,2.50
2019-02-15T21:44:32.000Z,2.50
2019-02-15T21:47:03.791Z,2.50
2019-02-15T21:50:17.414Z,2.50
2019-02-15T21:52:56.086Z,2.50
2019-02-15T21:58:38.464Z,2.40
2019-02-15T22:01:20.498Z,2.40
2019-02-15T22:03:56.384Z,2.40
2019-02-15T22:06:28.951Z,2.40
2019-02-15T22:09:04.227Z,2.50
2019-02-15T22:11:39.341Z,2.50
2019-02-15T22:14:13.126Z,2.50
2019-02-15T22:16:48.186Z,2.60
2019-02-15T22:19:19.919Z,2.60
2019-02-15T22:21:50.201Z,2.60
2019-02-15T22:27:12.436Z,2.60
2019-02-15T22:33:08.000Z,2.70
2019-02-15T22:35:43.445Z,2.70
2019-02-15T22:38:15.160Z,2.70
2019-02-15T22:40:50.990Z,2.70
2019-02-15T22:43:25.032Z,2.70
2019-02-15T22:45:59.496Z,2.70
2019-02-15T22:48:33.342Z,2.70
2019-02-15T22:51:07.159Z,2.70
2019-02-15T22:53:57.799Z,2.70
2019-02-15T22:57:21.291Z,2.80
2019-02-15T22:59:14.074Z,2.80
2019-02-15T23:01:50.772Z,2.80
2019-02-15T23:04:25.009Z,2.80
2019-02-15T23:07:02.604Z,2.70
2019-02-15T23:09:41.594Z,2.80
2019-02-15T23:12:20.141Z,2.80
2019-02-15T23:14:58.512Z,2.80
2019-02-15T23:17:37.708Z,2.80
2019-02-15T23:23:06.691Z,2.80
2019-02-15T23:25:46.939Z,2.90
2019-02-15T23:28:31.292Z,2.90
2019-02-15T23:31:02.759Z,2.90
2019-02-15T23:33:34.419Z,2.90
2019-02-15T23:36:05.381Z,2.90
2019-02-15T23:38:35.168Z,2.90
2019-02-15T23:41:06.957Z,2.90
2019-02-15T23:43:36.758Z,2.90
2019-02-15T23:46:07.675Z,2.90
2019-02-15T23:48:38.886Z,2.90
2019-02-15T23:51:09.384Z,2.90
2019-02-15T23:53:39.185Z,2.90
2019-02-15T23:56:10.683Z,2.80
2019-02-15T23:58:40.539Z,2.80
